CheckWX is a tool to help pilots better visualize weather data.  It is not intended as a substitute for an official pre-flight weather briefing.

20:12:19 UTC

KTRK METAR
Truckee-Tahoe Airport
Truckee, California, USA
Current

1 hour ago

KTRK 231850Z 33004KT 10SM SKC 17/M03 A3027
Observed
Apr-23 @ 18:50 UTC
Wind
  • 330° at 4 KTS
Visibility
10 SM
Flight Rules
VFR
Cloud Levels
  • Clear skies
Temperature
17°C / 63°F
Dewpoint
-3°C / 27°F
Humidity
25%
Altimeter
30.27" Hg
Pressure
1025.02 hPa
Previous

2 hours ago

KTRK 231750Z 00000KT 10SM SKC 14/M04 A3028
Observed
Apr-23 @ 17:50 UTC
Visibility
10 SM
Flight Rules
VFR
Cloud Levels
  • Clear skies
Temperature
14°C / 57°F
Dewpoint
-4°C / 25°F
Humidity
29%
Altimeter
30.28" Hg
Pressure
1025.42 hPa
Previous

3 hours ago

KTRK 231650Z 00000KT 10SM SKC 11/M02 A3029
Observed
Apr-23 @ 16:50 UTC
Visibility
10 SM
Flight Rules
VFR
Cloud Levels
  • Clear skies
Temperature
11°C / 52°F
Dewpoint
-2°C / 28°F
Humidity
41%
Altimeter
30.29" Hg
Pressure
1025.72 hPa